Time;durP1;ratioP1;P1;durP2;ratioP2;P2;SDS_P1;SDS_P2;PMS_P1;PMS_P2;Temp;Humidity;BMP_temperature;BMP_pressure;BME280_temperature;BME280_humidity;BME280_pressure;Samples;Min_cycle;Max_cycle;Signal;HPM_P1;HPM_P2
2021/08/25 00:01:20;;;;;;;11.75;6.00;;;;;;;;;;4772111;30;20040;-73
2021/08/25 00:03:45;;;;;;;15.50;7.20;;;;;;;;;;4785074;30;20034;-72
2021/08/25 00:06:11;;;;;;;13.52;7.25;;;;;;;;;;4787187;29;20496;-73
2021/08/25 00:08:36;;;;;;;12.73;6.57;;;;;;;;;;4797624;29;20062;-73
2021/08/25 00:11:03;;;;;;;13.53;6.87;;;;;;;;;;4786058;30;20096;-73
2021/08/25 00:13:29;;;;;;;17.43;7.43;;;;;;;;;;4786552;29;20055;-72
2021/08/25 00:15:55;;;;;;;13.90;6.73;;;;;;;;;;4801175;29;20448;-73
2021/08/25 00:18:21;;;;;;;14.33;6.93;;;;;;;;;;4786138;30;20054;-73
2021/08/25 00:20:46;;;;;;;18.93;6.63;;;;;;;;;;4801193;29;20114;-73
2021/08/25 00:23:12;;;;;;;13.33;7.10;;;;;;;;;;4787604;29;20503;-72
2021/08/25 00:25:38;;;;;;;15.07;7.00;;;;;;;;;;4787492;29;20027;-72
2021/08/25 00:28:04;;;;;;;10.73;7.03;;;;;;;;;;4787588;29;20055;-73
2021/08/25 00:30:29;;;;;;;14.27;6.90;;;;;;;;;;4787495;30;20027;-72
2021/08/25 00:32:55;;;;;;;18.20;6.60;;;;;;;;;;4785844;30;20077;-73
2021/08/25 00:35:20;;;;;;;12.40;6.97;;;;;;;;;;4786879;29;20035;-73
2021/08/25 00:37:46;;;;;;;12.60;6.60;;;;;;;;;;4786897;29;20027;-72
2021/08/25 00:40:12;;;;;;;25.57;7.70;;;;;;;;;;4787079;29;20031;-73
2021/08/25 00:42:39;;;;;;;14.10;7.13;;;;;;;;;;4786841;29;20063;-72
2021/08/25 00:45:06;;;;;;;13.60;7.13;;;;;;;;;;4785749;30;20404;-72
2021/08/25 00:47:42;;;;;;;11.63;6.63;;;;;;;;;;4784944;29;20027;-73
2021/08/25 00:50:12;;;;;;;12.90;7.97;;;;;;;;;;4786850;29;20126;-73
2021/08/25 00:52:40;;;;;;;8.83;6.30;;;;;;;;;;4800445;29;20481;-73
2021/08/25 00:55:06;;;;;;;10.97;6.60;;;;;;;;;;4780141;30;20035;-73
2021/08/25 00:57:35;;;;;;;13.37;6.33;;;;;;;;;;4772125;30;20042;-73
2021/08/25 01:00:01;;;;;;;12.40;6.73;;;;;;;;;;4781888;30;20028;-73
2021/08/25 01:02:40;;;;;;;14.83;8.67;;;;;;;;;;4783509;30;20032;-73
2021/08/25 01:05:08;;;;;;;13.20;6.83;;;;;;;;;;4786806;29;20088;-73
2021/08/25 01:07:34;;;;;;;12.30;7.00;;;;;;;;;;4781746;30;20036;-74
2021/08/25 01:10:00;;;;;;;16.03;7.67;;;;;;;;;;4775000;30;20069;-72
2021/08/25 01:12:26;;;;;;;15.97;6.50;;;;;;;;;;4780188;30;20035;-73
2021/08/25 01:14:51;;;;;;;12.27;6.93;;;;;;;;;;4785810;29;20035;-73
2021/08/25 01:17:24;;;;;;;13.23;6.50;;;;;;;;;;4784563;30;20047;-73
2021/08/25 01:20:00;;;;;;;11.90;6.73;;;;;;;;;;4785133;30;20031;-73
2021/08/25 01:22:26;;;;;;;11.60;6.10;;;;;;;;;;4785172;30;20031;-73
2021/08/25 01:24:56;;;;;;;12.97;7.37;;;;;;;;;;4786356;29;20088;-73
2021/08/25 01:27:26;;;;;;;12.50;6.33;;;;;;;;;;4799726;29;20100;-73
2021/08/25 01:29:53;;;;;;;13.10;6.47;;;;;;;;;;4784872;30;20039;-72
2021/08/25 01:32:18;;;;;;;12.73;6.47;;;;;;;;;;4786516;30;20035;-73
2021/08/25 01:34:58;;;;;;;11.87;6.17;;;;;;;;;;4784612;30;20549;-72
2021/08/25 01:37:27;;;;;;;13.00;6.77;;;;;;;;;;4784367;30;20046;-73
2021/08/25 01:39:53;;;;;;;12.53;6.60;;;;;;;;;;4784616;30;20320;-72
2021/08/25 01:42:19;;;;;;;13.33;6.50;;;;;;;;;;4784090;30;20090;-72
2021/08/25 01:44:46;;;;;;;10.73;6.53;;;;;;;;;;4786294;29;20476;-72
2021/08/25 01:47:13;;;;;;;11.53;7.00;;;;;;;;;;4782739;30;20429;-72
2021/08/25 01:49:39;;;;;;;11.93;6.57;;;;;;;;;;4784626;29;20039;-72
2021/08/25 01:52:05;;;;;;;11.70;6.70;;;;;;;;;;4784060;30;20042;-71
2021/08/25 01:54:31;;;;;;;10.20;5.93;;;;;;;;;;4785264;29;20124;-71
2021/08/25 01:56:57;;;;;;;12.53;6.13;;;;;;;;;;4783813;29;20047;-73
2021/08/25 01:59:23;;;;;;;10.30;5.83;;;;;;;;;;4784182;29;20083;-72
2021/08/25 02:01:48;;;;;;;10.23;6.40;;;;;;;;;;4783270;30;20120;-72
2021/08/25 02:04:14;;;;;;;10.97;5.70;;;;;;;;;;4781094;30;20039;-73
2021/08/25 02:06:39;;;;;;;12.10;6.23;;;;;;;;;;4783456;29;20035;-73
2021/08/25 02:09:05;;;;;;;11.37;6.30;;;;;;;;;;4784391;29;20042;-74
2021/08/25 02:11:30;;;;;;;13.10;6.50;;;;;;;;;;4784207;30;20603;-73
2021/08/25 02:13:56;;;;;;;13.17;6.97;;;;;;;;;;4784245;29;20035;-74
2021/08/25 02:16:21;;;;;;;12.47;6.20;;;;;;;;;;4783837;30;20077;-72
2021/08/25 02:18:47;;;;;;;12.73;7.77;;;;;;;;;;4785342;29;20127;-73
2021/08/25 02:21:13;;;;;;;11.33;7.00;;;;;;;;;;4784061;30;20035;-73
2021/08/25 02:23:39;;;;;;;11.27;7.83;;;;;;;;;;4785236;29;20108;-73
2021/08/25 02:26:05;;;;;;;12.73;6.27;;;;;;;;;;4784031;30;20041;-73
2021/08/25 02:28:30;;;;;;;16.27;7.37;;;;;;;;;;4783112;29;20123;-72
2021/08/25 02:30:56;;;;;;;10.40;6.40;;;;;;;;;;4804674;29;20035;-72
2021/08/25 02:33:22;;;;;;;15.33;7.40;;;;;;;;;;4804223;29;20508;-72
2021/08/25 02:35:48;;;;;;;12.10;6.67;;;;;;;;;;4801394;29;20047;-72
2021/08/25 02:38:13;;;;;;;14.17;7.10;;;;;;;;;;4801726;29;20035;-72
2021/08/25 02:40:40;;;;;;;10.80;6.27;;;;;;;;;;4803246;29;20117;-72
2021/08/25 02:43:06;;;;;;;12.27;5.70;;;;;;;;;;4801597;29;20054;-72
2021/08/25 02:45:31;;;;;;;12.20;6.53;;;;;;;;;;4802738;29;20113;-72
2021/08/25 02:47:57;;;;;;;18.10;6.70;;;;;;;;;;4802888;29;20437;-72
2021/08/25 02:50:23;;;;;;;11.03;5.73;;;;;;;;;;4792500;29;20035;-73
2021/08/25 02:52:49;;;;;;;15.27;7.20;;;;;;;;;;4782527;30;20047;-72
2021/08/25 02:55:14;;;;;;;12.07;6.40;;;;;;;;;;4784254;29;20038;-73
2021/08/25 02:57:40;;;;;;;13.63;6.93;;;;;;;;;;4779644;30;20035;-72
2021/08/25 03:00:06;;;;;;;11.83;6.23;;;;;;;;;;4778277;30;20529;-73
2021/08/25 03:02:32;;;;;;;19.00;7.97;;;;;;;;;;4782876;30;20062;-72
2021/08/25 03:04:57;;;;;;;15.30;8.03;;;;;;;;;;4783351;29;20512;-72
2021/08/25 03:07:24;;;;;;;13.37;6.90;;;;;;;;;;4780109;30;20663;-71
2021/08/25 03:09:50;;;;;;;30.13;8.90;;;;;;;;;;4782814;29;20100;-74
2021/08/25 03:12:15;;;;;;;12.10;7.17;;;;;;;;;;4797578;29;20035;-73
2021/08/25 03:14:41;;;;;;;14.23;7.20;;;;;;;;;;4783186;30;20046;-73
2021/08/25 03:17:07;;;;;;;14.93;7.50;;;;;;;;;;4783174;29;20573;-73
2021/08/25 03:19:32;;;;;;;10.43;6.77;;;;;;;;;;4798121;29;20041;-73
2021/08/25 03:21:58;;;;;;;17.27;7.80;;;;;;;;;;4784702;29;20400;-73
2021/08/25 03:24:42;;;;;;;12.67;7.20;;;;;;;;;;4784407;29;20512;-72
2021/08/25 03:27:07;;;;;;;14.27;7.67;;;;;;;;;;4783240;30;20067;-73
2021/08/25 03:29:33;;;;;;;12.47;6.83;;;;;;;;;;4783205;30;20444;-73
2021/08/25 03:31:59;;;;;;;14.23;7.67;;;;;;;;;;4783239;29;20426;-73
2021/08/25 03:34:24;;;;;;;21.13;8.20;;;;;;;;;;4784321;29;20031;-73
2021/08/25 03:36:50;;;;;;;10.20;6.80;;;;;;;;;;4784348;29;20457;-73
2021/08/25 03:39:16;;;;;;;16.83;9.63;;;;;;;;;;4784412;29;20046;-72
2021/08/25 03:41:41;;;;;;;15.37;7.67;;;;;;;;;;4784107;29;20221;-73
2021/08/25 03:44:07;;;;;;;13.50;7.40;;;;;;;;;;4783332;30;20042;-73
2021/08/25 03:46:32;;;;;;;14.77;7.70;;;;;;;;;;4782642;29;20031;-72
2021/08/25 03:48:58;;;;;;;13.03;8.30;;;;;;;;;;4784210;29;20043;-71
2021/08/25 03:51:25;;;;;;;15.93;9.30;;;;;;;;;;4780431;30;20065;-71
2021/08/25 03:53:50;;;;;;;16.03;11.07;;;;;;;;;;4784005;29;20040;-72
2021/08/25 03:56:16;;;;;;;12.63;8.07;;;;;;;;;;4782908;30;20469;-73
2021/08/25 03:58:41;;;;;;;15.83;9.43;;;;;;;;;;4784364;29;20077;-73
2021/08/25 04:01:07;;;;;;;12.50;8.03;;;;;;;;;;4783001;30;20512;-73
2021/08/25 04:03:32;;;;;;;14.73;8.20;;;;;;;;;;4784154;29;20039;-72
2021/08/25 04:05:58;;;;;;;14.30;8.13;;;;;;;;;;4784179;29;20362;-71
2021/08/25 04:08:23;;;;;;;15.60;8.57;;;;;;;;;;4781989;30;20094;-71
2021/08/25 04:10:49;;;;;;;15.13;8.93;;;;;;;;;;4797137;29;20446;-72
2021/08/25 04:13:14;;;;;;;17.77;9.37;;;;;;;;;;4782585;30;20035;-72
2021/08/25 04:15:40;;;;;;;15.50;9.00;;;;;;;;;;4783879;29;20035;-72
2021/08/25 04:18:06;;;;;;;15.30;9.47;;;;;;;;;;4784081;29;20042;-73
2021/08/25 04:20:31;;;;;;;15.87;8.60;;;;;;;;;;4782620;29;20067;-73
2021/08/25 04:22:57;;;;;;;15.03;7.80;;;;;;;;;;4787480;29;20069;-73
2021/08/25 04:25:22;;;;;;;11.37;7.57;;;;;;;;;;4787386;29;20092;-72
2021/08/25 04:27:48;;;;;;;13.17;8.00;;;;;;;;;;4785921;30;20031;-72
2021/08/25 04:30:13;;;;;;;15.23;9.07;;;;;;;;;;4785825;30;20042;-73
2021/08/25 04:32:39;;;;;;;18.17;8.73;;;;;;;;;;4787059;29;20039;-72
2021/08/25 04:35:05;;;;;;;20.70;9.27;;;;;;;;;;4785703;30;20112;-73
2021/08/25 04:37:31;;;;;;;16.27;8.40;;;;;;;;;;4785562;29;20122;-73
2021/08/25 04:39:56;;;;;;;19.43;8.57;;;;;;;;;;4787229;29;20110;-73
2021/08/25 04:42:22;;;;;;;15.80;9.47;;;;;;;;;;4785640;30;20070;-73
2021/08/25 04:44:47;;;;;;;15.07;9.17;;;;;;;;;;4785764;30;20126;-72
2021/08/25 04:47:13;;;;;;;16.73;9.97;;;;;;;;;;4801127;29;20046;-72
2021/08/25 04:49:38;;;;;;;16.93;9.73;;;;;;;;;;4786648;29;20062;-72
2021/08/25 04:52:04;;;;;;;18.30;10.30;;;;;;;;;;4784006;29;20062;-73
2021/08/25 04:54:29;;;;;;;16.53;8.80;;;;;;;;;;4785892;30;20035;-73
2021/08/25 04:56:55;;;;;;;12.93;8.50;;;;;;;;;;4784448;29;20039;-72
2021/08/25 04:59:20;;;;;;;19.27;9.93;;;;;;;;;;4784393;29;20467;-73
2021/08/25 05:01:46;;;;;;;15.37;8.60;;;;;;;;;;4785634;30;20043;-72
2021/08/25 05:04:12;;;;;;;14.93;8.23;;;;;;;;;;4784374;30;20031;-72
2021/08/25 05:06:39;;;;;;;18.00;8.97;;;;;;;;;;4786380;29;20173;-72
2021/08/25 05:09:05;;;;;;;19.87;9.07;;;;;;;;;;4785282;30;20396;-72
2021/08/25 05:11:30;;;;;;;17.53;8.63;;;;;;;;;;4786304;29;20039;-73
2021/08/25 05:13:56;;;;;;;14.07;8.23;;;;;;;;;;4786712;29;20611;-73
2021/08/25 05:16:21;;;;;;;17.20;9.03;;;;;;;;;;4786443;29;20481;-72
2021/08/25 05:18:47;;;;;;;14.23;8.57;;;;;;;;;;4785058;30;20429;-72
2021/08/25 05:21:14;;;;;;;15.93;9.07;;;;;;;;;;4785349;30;20523;-72
2021/08/25 05:23:39;;;;;;;17.37;8.97;;;;;;;;;;4786365;29;20046;-73
2021/08/25 05:26:07;;;;;;;17.37;10.03;;;;;;;;;;4786316;29;20034;-73
2021/08/25 05:28:34;;;;;;;17.40;9.30;;;;;;;;;;4785028;30;20035;-73
2021/08/25 05:30:59;;;;;;;12.40;8.10;;;;;;;;;;4799899;29;20035;-73
2021/08/25 05:33:25;;;;;;;16.90;8.60;;;;;;;;;;4784894;29;20040;-73
2021/08/25 05:35:50;;;;;;;19.43;9.93;;;;;;;;;;4785874;29;20043;-72
2021/08/25 05:38:16;;;;;;;17.70;10.93;;;;;;;;;;4799463;29;20088;-73
2021/08/25 05:40:41;;;;;;;17.90;8.83;;;;;;;;;;4780846;30;20035;-73
2021/08/25 05:43:07;;;;;;;20.20;9.43;;;;;;;;;;4773983;29;20067;-73
2021/08/25 05:45:34;;;;;;;19.53;8.77;;;;;;;;;;4783831;29;20042;-72
2021/08/25 05:48:00;;;;;;;19.20;10.40;;;;;;;;;;4786711;29;20163;-73
2021/08/25 05:50:26;;;;;;;17.90;8.27;;;;;;;;;;4781572;30;20118;-73
2021/08/25 05:52:52;;;;;;;17.40;9.07;;;;;;;;;;4776598;29;20039;-73
2021/08/25 05:55:18;;;;;;;30.60;18.07;;;;;;;;;;4781040;29;20065;-73
2021/08/25 05:57:46;;;;;;;18.37;9.37;;;;;;;;;;4772673;29;20666;-72
2021/08/25 06:00:18;;;;;;;18.43;9.00;;;;;;;;;;4778962;29;20043;-74
2021/08/25 06:02:44;;;;;;;16.27;9.25;;;;;;;;;;4792880;29;20562;-74
2021/08/25 06:05:12;;;;;;;14.27;7.70;;;;;;;;;;4782629;30;20077;-74
2021/08/25 06:07:38;;;;;;;15.87;9.27;;;;;;;;;;4785155;30;20042;-74
2021/08/25 06:10:06;;;;;;;19.73;9.73;;;;;;;;;;4770769;29;20027;-73
2021/08/25 06:12:31;;;;;;;16.03;9.37;;;;;;;;;;4784070;29;20690;-73
2021/08/25 06:14:57;;;;;;;15.17;8.57;;;;;;;;;;4783917;29;20110;-72
2021/08/25 06:17:24;;;;;;;15.63;8.50;;;;;;;;;;4795393;29;20130;-73
2021/08/25 06:19:49;;;;;;;18.37;9.63;;;;;;;;;;4797743;29;20023;-73
2021/08/25 06:22:15;;;;;;;19.87;10.90;;;;;;;;;;4779919;30;20464;-73
2021/08/25 06:24:41;;;;;;;19.87;10.33;;;;;;;;;;4767503;30;20042;-72
2021/08/25 06:27:07;;;;;;;27.50;13.67;;;;;;;;;;4783296;29;20481;-73
2021/08/25 06:29:32;;;;;;;18.43;10.27;;;;;;;;;;4776121;30;20169;-74
2021/08/25 06:31:58;;;;;;;17.83;9.17;;;;;;;;;;4776600;29;20134;-74
2021/08/25 06:34:23;;;;;;;19.63;10.17;;;;;;;;;;4781168;30;20659;-73
2021/08/25 06:36:49;;;;;;;17.93;9.70;;;;;;;;;;4786979;29;20044;-73
2021/08/25 06:39:14;;;;;;;17.70;10.00;;;;;;;;;;4800019;29;20027;-74
2021/08/25 06:41:40;;;;;;;18.20;9.77;;;;;;;;;;4787411;29;20453;-72
2021/08/25 06:44:06;;;;;;;15.77;8.98;;;;;;;;;;4792824;29;20045;-73
2021/08/25 06:46:33;;;;;;;16.95;10.00;;;;;;;;;;4802034;29;20027;-73
2021/08/25 06:48:59;;;;;;;14.70;9.40;;;;;;;;;;4797875;29;20229;-73
2021/08/25 06:51:24;;;;;;;17.77;10.48;;;;;;;;;;4778178;29;20043;-73
2021/08/25 06:53:50;;;;;;;21.63;9.93;;;;;;;;;;4777777;29;20050;-74
2021/08/25 06:56:15;;;;;;;17.70;9.07;;;;;;;;;;4779315;29;20066;-73
2021/08/25 06:58:41;;;;;;;26.38;11.45;;;;;;;;;;4776325;29;20035;-73
2021/08/25 07:01:06;;;;;;;20.30;10.40;;;;;;;;;;4774968;29;20795;-75
2021/08/25 07:03:32;;;;;;;20.50;9.80;;;;;;;;;;4779332;30;20496;-73
2021/08/25 07:05:57;;;;;;;18.90;10.98;;;;;;;;;;4779194;29;20035;-74
2021/08/25 07:08:23;;;;;;;27.23;14.48;;;;;;;;;;4778747;29;20073;-74
2021/08/25 07:10:49;;;;;;;22.13;11.80;;;;;;;;;;4778650;29;20166;-74
2021/08/25 07:13:14;;;;;;;28.88;14.10;;;;;;;;;;4781617;29;20035;-74
2021/08/25 07:15:40;;;;;;;20.65;10.98;;;;;;;;;;4780768;30;20444;-73
2021/08/25 07:18:06;;;;;;;19.23;11.07;;;;;;;;;;4768352;30;20039;-73
2021/08/25 07:20:32;;;;;;;17.40;9.50;;;;;;;;;;4782924;30;20031;-73
2021/08/25 07:22:58;;;;;;;18.83;9.20;;;;;;;;;;4780079;30;20031;-73
2021/08/25 07:25:23;;;;;;;18.05;9.25;;;;;;;;;;4781232;29;20062;-74
2021/08/25 07:27:49;;;;;;;16.10;8.50;;;;;;;;;;4775522;29;20774;-74
2021/08/25 07:30:14;;;;;;;18.10;9.63;;;;;;;;;;4775101;29;20092;-73
2021/08/25 07:32:40;;;;;;;15.90;8.55;;;;;;;;;;4774767;29;20047;-74
2021/08/25 07:35:09;;;;;;;16.40;9.10;;;;;;;;;;4790985;29;20051;-74
2021/08/25 07:37:35;;;;;;;31.65;10.57;;;;;;;;;;4792074;29;20108;-73
2021/08/25 07:40:01;;;;;;;17.40;9.48;;;;;;;;;;4776966;29;20045;-74
2021/08/25 07:42:27;;;;;;;19.58;9.68;;;;;;;;;;4792191;29;20067;-73
2021/08/25 07:44:52;;;;;;;21.67;10.48;;;;;;;;;;4776236;29;20646;-73
2021/08/25 07:47:18;;;;;;;13.10;7.43;;;;;;;;;;4776456;29;20035;-74
2021/08/25 07:49:43;;;;;;;17.50;8.27;;;;;;;;;;4775286;29;20174;-73
2021/08/25 07:52:09;;;;;;;15.52;8.65;;;;;;;;;;4778141;29;20027;-75
2021/08/25 07:54:34;;;;;;;21.67;9.52;;;;;;;;;;4781134;29;20041;-72
2021/08/25 07:57:00;;;;;;;19.90;8.30;;;;;;;;;;4779400;29;20100;-74
2021/08/25 07:59:25;;;;;;;23.15;8.38;;;;;;;;;;4795142;29;20146;-74
2021/08/25 08:01:52;;;;;;;17.25;8.60;;;;;;;;;;4781063;29;20035;-75
2021/08/25 08:04:18;;;;;;;16.15;8.18;;;;;;;;;;4779549;29;20043;-75
2021/08/25 08:06:44;;;;;;;21.17;9.55;;;;;;;;;;4779877;29;20089;-75
2021/08/25 08:09:09;;;;;;;17.52;7.03;;;;;;;;;;4780997;29;20031;-73
2021/08/25 08:11:38;;;;;;;15.73;7.45;;;;;;;;;;4781844;29;20031;-74
2021/08/25 08:14:05;;;;;;;13.85;6.35;;;;;;;;;;4780291;30;20076;-74
2021/08/25 08:16:33;;;;;;;22.55;7.53;;;;;;;;;;4781428;30;20495;-74
2021/08/25 08:19:03;;;;;;;26.10;9.10;;;;;;;;;;4780463;29;20031;-74
2021/08/25 08:21:30;;;;;;;16.17;7.18;;;;;;;;;;4781004;29;20129;-73
2021/08/25 08:23:56;;;;;;;16.17;8.07;;;;;;;;;;4794534;29;20134;-72
2021/08/25 08:26:22;;;;;;;13.05;6.32;;;;;;;;;;4798772;29;20895;-74
2021/08/25 08:28:48;;;;;;;15.00;6.60;;;;;;;;;;4784972;29;20039;-74
2021/08/25 08:31:14;;;;;;;19.17;9.02;;;;;;;;;;4788410;29;20042;-73
2021/08/25 08:33:40;;;;;;;13.10;7.07;;;;;;;;;;4796860;29;20095;-74
2021/08/25 08:36:06;;;;;;;12.52;7.05;;;;;;;;;;4787661;29;20038;-73
2021/08/25 08:38:32;;;;;;;13.05;7.63;;;;;;;;;;4794886;29;20092;-74
2021/08/25 08:40:58;;;;;;;20.17;7.72;;;;;;;;;;4799399;29;20027;-73
2021/08/25 08:43:23;;;;;;;13.68;7.00;;;;;;;;;;4789022;29;20550;-74
2021/08/25 08:45:49;;;;;;;20.73;6.50;;;;;;;;;;4790991;29;20072;-72
2021/08/25 08:48:17;;;;;;;18.95;6.70;;;;;;;;;;4785714;29;20598;-73
2021/08/25 08:50:48;;;;;;;19.33;6.93;;;;;;;;;;4785117;29;20032;-74
2021/08/25 08:53:17;;;;;;;17.48;6.65;;;;;;;;;;4805751;29;20049;-74
2021/08/25 08:55:43;;;;;;;15.63;7.40;;;;;;;;;;4793096;29;20038;-74
2021/08/25 08:58:10;;;;;;;14.52;6.40;;;;;;;;;;4784856;29;20043;-74
2021/08/25 09:00:38;;;;;;;11.32;5.13;;;;;;;;;;4783040;29;20126;-74
2021/08/25 09:03:17;;;;;;;18.52;6.28;;;;;;;;;;4790382;29;20085;-74
2021/08/25 09:05:43;;;;;;;9.95;4.97;;;;;;;;;;4798949;29;20027;-75
2021/08/25 09:08:08;;;;;;;11.82;5.43;;;;;;;;;;4798960;29;20085;-74
2021/08/25 09:10:36;;;;;;;16.10;6.35;;;;;;;;;;4787849;29;20111;-74
2021/08/25 09:13:10;;;;;;;12.73;5.00;;;;;;;;;;4796555;29;20043;-74
2021/08/25 09:15:39;;;;;;;14.63;4.57;;;;;;;;;;4802540;29;20029;-74
2021/08/25 09:18:14;;;;;;;10.23;4.78;;;;;;;;;;4791184;29;20041;-75
2021/08/25 09:20:47;;;;;;;12.60;4.40;;;;;;;;;;4792879;29;20026;-74
2021/08/25 09:23:15;;;;;;;9.85;4.45;;;;;;;;;;4794936;29;20046;-74
2021/08/25 09:25:45;;;;;;;11.57;5.50;;;;;;;;;;4801662;29;20074;-73
2021/08/25 09:28:15;;;;;;;20.13;8.88;;;;;;;;;;4785808;29;20061;-74
2021/08/25 09:30:54;;;;;;;11.00;5.10;;;;;;;;;;4788623;29;20033;-75
2021/08/25 09:33:22;;;;;;;11.32;5.25;;;;;;;;;;4789823;29;20027;-74
2021/08/25 09:35:48;;;;;;;12.52;4.22;;;;;;;;;;4788195;29;20043;-75
2021/08/25 09:38:21;;;;;;;10.70;4.00;;;;;;;;;;4783640;30;20038;-75
2021/08/25 09:41:08;;;;;;;14.02;4.47;;;;;;;;;;4782959;29;20042;-75
2021/08/25 09:43:39;;;;;;;13.40;4.38;;;;;;;;;;4785744;29;20048;-74
2021/08/25 09:46:12;;;;;;;11.85;4.35;;;;;;;;;;4791981;29;20034;-74
2021/08/25 09:48:44;;;;;;;11.73;4.63;;;;;;;;;;4785403;29;20362;-73
2021/08/25 09:51:12;;;;;;;14.80;6.00;;;;;;;;;;4802538;29;20035;-74
2021/08/25 09:53:38;;;;;;;8.73;4.20;;;;;;;;;;4794429;29;20049;-74
2021/08/25 09:56:32;;;;;;;9.57;3.50;;;;;;;;;;4807793;29;20483;-75
2021/08/25 09:58:58;;;;;;;8.82;3.92;;;;;;;;;;4788420;29;20047;-74
2021/08/25 10:01:25;;;;;;;10.75;3.95;;;;;;;;;;4801121;29;20035;-73
2021/08/25 10:03:51;;;;;;;16.25;4.93;;;;;;;;;;4788661;29;20180;-75
2021/08/25 11:27:47;;;;;;;11.70;4.63;;;;;;;;;;5101969;27;20409;-71
2021/08/25 11:30:24;;;;;;;9.77;4.78;;;;;;;;;;5087019;28;20029;-70
2021/08/25 11:32:51;;;;;;;8.25;3.92;;;;;;;;;;5062127;28;20060;-71
2021/08/25 11:35:30;;;;;;;8.82;3.90;;;;;;;;;;5048582;28;20031;-72
2021/08/25 11:38:01;;;;;;;10.48;4.07;;;;;;;;;;5070696;28;20070;-72
2021/08/25 11:40:29;;;;;;;11.75;4.68;;;;;;;;;;5068411;28;20032;-70
2021/08/25 11:42:55;;;;;;;12.20;4.88;;;;;;;;;;5068900;28;20035;-72
2021/08/25 11:45:32;;;;;;;11.38;3.88;;;;;;;;;;5068488;28;20032;-72
2021/08/25 11:47:59;;;;;;;11.02;4.53;;;;;;;;;;5068784;28;20028;-73
2021/08/25 11:50:27;;;;;;;11.68;4.55;;;;;;;;;;5068146;28;20479;-73
2021/08/25 11:52:53;;;;;;;11.65;4.28;;;;;;;;;;5086004;28;20028;-72
2021/08/25 11:55:20;;;;;;;9.75;4.63;;;;;;;;;;5082396;28;20456;-72
2021/08/25 11:57:50;;;;;;;11.05;4.10;;;;;;;;;;5048126;28;20106;-73
2021/08/25 12:00:37;;;;;;;8.73;4.45;;;;;;;;;;5048375;28;20038;-73
2021/08/25 12:03:04;;;;;;;9.88;4.00;;;;;;;;;;5047862;28;20032;-73
2021/08/25 12:05:32;;;;;;;18.63;7.25;;;;;;;;;;5064608;28;20686;-73
2021/08/25 12:07:58;;;;;;;10.18;4.38;;;;;;;;;;5050572;28;20035;-72
2021/08/25 12:10:24;;;;;;;8.07;3.80;;;;;;;;;;5057621;28;20020;-72
2021/08/25 12:12:50;;;;;;;8.18;4.07;;;;;;;;;;5059417;28;20047;-72
2021/08/25 12:15:16;;;;;;;9.68;3.85;;;;;;;;;;5087270;28;20681;-73
2021/08/25 12:17:58;;;;;;;13.57;4.00;;;;;;;;;;5076095;28;20028;-74
2021/08/25 12:20:38;;;;;;;10.45;4.40;;;;;;;;;;5063891;28;20055;-73
2021/08/25 12:23:04;;;;;;;12.23;5.38;;;;;;;;;;5046815;28;20132;-73
2021/08/25 12:25:48;;;;;;;10.50;5.60;;;;;;;;;;5043429;28;20025;-75
2021/08/25 12:28:34;;;;;;;8.93;4.80;;;;;;;;;;5035398;28;20033;-73
2021/08/25 12:31:15;;;;;;;12.85;4.93;;;;;;;;;;5028692;28;20025;-72
2021/08/25 12:33:43;;;;;;;11.32;5.10;;;;;;;;;;5051798;28;20092;-74
2021/08/25 12:36:23;;;;;;;9.48;4.43;;;;;;;;;;5033467;28;20046;-73
2021/08/25 12:38:56;;;;;;;9.05;5.07;;;;;;;;;;5046107;28;20040;-73
2021/08/25 12:41:24;;;;;;;11.85;4.80;;;;;;;;;;5025130;28;20366;-73
2021/08/25 12:43:51;;;;;;;8.82;5.07;;;;;;;;;;5055596;28;20033;-72
2021/08/25 12:46:17;;;;;;;15.43;5.65;;;;;;;;;;5031470;28;20024;-73
2021/08/25 12:48:43;;;;;;;10.73;5.43;;;;;;;;;;5031927;28;20028;-73
2021/08/25 12:51:10;;;;;;;11.07;5.30;;;;;;;;;;5050785;28;20023;-72
2021/08/25 12:53:36;;;;;;;12.75;4.85;;;;;;;;;;5050244;28;20024;-71
2021/08/25 12:56:01;;;;;;;13.32;5.07;;;;;;;;;;5031807;28;20029;-73
2021/08/25 12:58:27;;;;;;;9.57;5.00;;;;;;;;;;5050622;28;20025;-72
2021/08/25 13:00:52;;;;;;;12.02;5.10;;;;;;;;;;5027418;28;20368;-74
2021/08/25 13:03:20;;;;;;;11.38;5.65;;;;;;;;;;5036486;28;20033;-72
2021/08/25 13:05:46;;;;;;;9.57;4.93;;;;;;;;;;5042552;28;20431;-73
2021/08/25 13:08:11;;;;;;;22.55;5.03;;;;;;;;;;5031861;28;20041;-73
2021/08/25 13:10:37;;;;;;;12.63;4.47;;;;;;;;;;5047331;28;20027;-73
2021/08/25 13:13:04;;;;;;;8.60;4.90;;;;;;;;;;5047906;28;20581;-74
2021/08/25 13:15:30;;;;;;;11.18;4.38;;;;;;;;;;5048559;28;20025;-74
2021/08/25 13:17:55;;;;;;;13.98;5.15;;;;;;;;;;5009692;28;20037;-72
2021/08/25 13:20:21;;;;;;;14.90;4.63;;;;;;;;;;5046865;28;20692;-73
2021/08/25 13:22:47;;;;;;;11.20;5.00;;;;;;;;;;5024637;28;20057;-74
2021/08/25 13:25:12;;;;;;;9.18;4.20;;;;;;;;;;5029971;28;20029;-72
2021/08/25 13:27:38;;;;;;;10.13;4.63;;;;;;;;;;5030148;28;20048;-73
2021/08/25 13:30:04;;;;;;;10.77;4.95;;;;;;;;;;5042805;28;20488;-73
2021/08/25 13:32:31;;;;;;;10.85;5.05;;;;;;;;;;5024630;28;20031;-74
2021/08/25 13:34:57;;;;;;;9.73;4.45;;;;;;;;;;5041476;28;20044;-72
2021/08/25 13:37:22;;;;;;;12.93;5.53;;;;;;;;;;5025810;28;20476;-74
2021/08/25 13:39:48;;;;;;;11.70;4.70;;;;;;;;;;5025651;28;20039;-72
2021/08/25 13:42:13;;;;;;;14.38;4.60;;;;;;;;;;5029124;28;20047;-74
2021/08/25 13:44:39;;;;;;;7.95;4.25;;;;;;;;;;5027433;28;20041;-72
2021/08/25 13:47:04;;;;;;;9.57;4.80;;;;;;;;;;5047758;28;20031;-73
2021/08/25 13:49:30;;;;;;;12.50;4.82;;;;;;;;;;5020010;28;20041;-73
2021/08/25 13:51:55;;;;;;;11.02;5.78;;;;;;;;;;5029777;28;20119;-72
2021/08/25 13:54:21;;;;;;;12.95;6.82;;;;;;;;;;5022400;28;20059;-73
2021/08/25 13:56:46;;;;;;;14.07;5.22;;;;;;;;;;5019856;28;20472;-72
2021/08/25 13:59:12;;;;;;;12.38;5.55;;;;;;;;;;5037011;28;20056;-73
2021/08/25 14:01:37;;;;;;;10.35;5.22;;;;;;;;;;5013689;28;20492;-73
2021/08/25 14:04:03;;;;;;;15.00;4.88;;;;;;;;;;5043214;28;20081;-75
2021/08/25 14:06:30;;;;;;;9.70;4.75;;;;;;;;;;5010114;28;20040;-74
2021/08/25 14:08:56;;;;;;;8.98;5.03;;;;;;;;;;5037581;28;20476;-73
2021/08/25 14:11:22;;;;;;;16.33;5.20;;;;;;;;;;5022574;28;20056;-71
2021/08/25 14:13:48;;;;;;;12.50;5.13;;;;;;;;;;5043049;28;20071;-71
2021/08/25 14:16:13;;;;;;;11.82;5.55;;;;;;;;;;5028193;28;20334;-72
2021/08/25 14:18:39;;;;;;;9.73;4.47;;;;;;;;;;5026589;28;20025;-73
2021/08/25 14:21:05;;;;;;;12.27;5.35;;;;;;;;;;5027764;28;20036;-74
2021/08/25 14:23:31;;;;;;;12.57;4.85;;;;;;;;;;5031156;28;20025;-74
2021/08/25 14:25:58;;;;;;;16.95;4.82;;;;;;;;;;5038987;28;20373;-73
2021/08/25 14:28:26;;;;;;;9.63;4.10;;;;;;;;;;5014598;28;20022;-73
2021/08/25 14:30:53;;;;;;;11.02;4.90;;;;;;;;;;5030765;28;20036;-73
2021/08/25 14:33:19;;;;;;;14.10;6.13;;;;;;;;;;4990722;28;20076;-72
2021/08/25 14:35:45;;;;;;;9.65;4.50;;;;;;;;;;5002032;28;20044;-73
2021/08/25 14:38:10;;;;;;;7.43;4.25;;;;;;;;;;4999572;28;20069;-73
2021/08/25 14:40:36;;;;;;;8.18;4.03;;;;;;;;;;5018766;28;20357;-73
2021/08/25 14:43:02;;;;;;;8.20;4.70;;;;;;;;;;5007369;28;20024;-73
2021/08/25 14:45:27;;;;;;;10.63;4.55;;;;;;;;;;5025681;28;20392;-73
2021/08/25 14:47:53;;;;;;;8.73;3.90;;;;;;;;;;5006573;28;20030;-74
2021/08/25 14:50:19;;;;;;;10.23;4.93;;;;;;;;;;5025244;28;20030;-72
2021/08/25 14:52:44;;;;;;;6.25;3.53;;;;;;;;;;5024413;28;20017;-72
2021/08/25 14:55:10;;;;;;;8.23;3.67;;;;;;;;;;5023150;28;20064;-73
2021/08/25 14:57:37;;;;;;;9.35;3.90;;;;;;;;;;5001983;28;20408;-75
2021/08/25 15:00:04;;;;;;;15.38;4.40;;;;;;;;;;5007214;28;20473;-73
2021/08/25 15:02:29;;;;;;;8.20;3.90;;;;;;;;;;5009421;28;20029;-75
2021/08/25 15:04:55;;;;;;;10.07;4.40;;;;;;;;;;5008273;28;20440;-73
2021/08/25 15:07:22;;;;;;;7.07;3.78;;;;;;;;;;4989337;28;20279;-73
2021/08/25 15:09:48;;;;;;;9.25;5.20;;;;;;;;;;5024043;28;20021;-73
2021/08/25 15:12:14;;;;;;;8.20;4.15;;;;;;;;;;5021911;28;20029;-73
2021/08/25 15:14:40;;;;;;;9.52;4.30;;;;;;;;;;5024496;28;20468;-72
2021/08/25 15:17:05;;;;;;;10.18;3.83;;;;;;;;;;5005709;28;20026;-74
2021/08/25 15:19:34;;;;;;;10.57;3.80;;;;;;;;;;5004202;28;20033;-74
2021/08/25 15:22:00;;;;;;;7.97;3.85;;;;;;;;;;5008462;28;20112;-74
2021/08/25 15:24:29;;;;;;;9.40;4.35;;;;;;;;;;5025606;28;20481;-74
2021/08/25 15:26:56;;;;;;;12.45;4.50;;;;;;;;;;5005658;28;20523;-73
2021/08/25 15:29:22;;;;;;;10.13;3.55;;;;;;;;;;5009077;28;20460;-71
2021/08/25 15:31:49;;;;;;;9.93;3.50;;;;;;;;;;5008451;28;20040;-72
2021/08/25 15:34:14;;;;;;;13.13;4.00;;;;;;;;;;5033647;28;20045;-74
2021/08/25 15:36:40;;;;;;;8.25;3.50;;;;;;;;;;5008741;28;20039;-73
2021/08/25 15:39:06;;;;;;;11.65;3.70;;;;;;;;;;5009563;28;20048;-73
2021/08/25 15:41:32;;;;;;;15.23;7.35;;;;;;;;;;5027413;28;20025;-74
2021/08/25 15:43:57;;;;;;;7.43;3.40;;;;;;;;;;5028756;28;20053;-73
2021/08/25 15:46:23;;;;;;;18.08;4.22;;;;;;;;;;5009871;28;20080;-73
2021/08/25 15:48:48;;;;;;;8.93;3.53;;;;;;;;;;5027726;28;20037;-74
2021/08/25 15:51:14;;;;;;;7.97;3.50;;;;;;;;;;5010458;28;20123;-73